sensor_id;sensor_type;location;lat;lon;timestamp;P1;durP1;ratioP1;P2;durP2;ratioP2
66270;SDS011;53063;39.614;8.814;2022-10-04T00:03:08;17.30;;;4.75;;
66270;SDS011;53063;39.614;8.814;2022-10-04T00:05:36;13.23;;;4.75;;
66270;SDS011;53063;39.614;8.814;2022-10-04T00:08:21;17.35;;;4.68;;
66270;SDS011;53063;39.614;8.814;2022-10-04T00:11:05;12.88;;;4.10;;
66270;SDS011;53063;39.614;8.814;2022-10-04T00:13:37;18.13;;;4.40;;
66270;SDS011;53063;39.614;8.814;2022-10-04T00:16:05;15.25;;;3.95;;
66270;SDS011;53063;39.614;8.814;2022-10-04T00:18:38;13.02;;;3.10;;
66270;SDS011;53063;39.614;8.814;2022-10-04T00:21:09;11.20;;;2.50;;
66270;SDS011;53063;39.614;8.814;2022-10-04T00:26:02;11.77;;;3.50;;
66270;SDS011;53063;39.614;8.814;2022-10-04T00:31:17;13.00;;;3.72;;
66270;SDS011;53063;39.614;8.814;2022-10-04T00:36:36;17.60;;;3.53;;
66270;SDS011;53063;39.614;8.814;2022-10-04T00:44:22;7.95;;;2.80;;
66270;SDS011;53063;39.614;8.814;2022-10-04T00:47:00;11.82;;;2.75;;
66270;SDS011;53063;39.614;8.814;2022-10-04T00:49:38;13.45;;;2.83;;
66270;SDS011;53063;39.614;8.814;2022-10-04T00:52:11;11.48;;;3.17;;
66270;SDS011;53063;39.614;8.814;2022-10-04T00:54:52;10.05;;;1.65;;
66270;SDS011;53063;39.614;8.814;2022-10-04T00:57:26;4.72;;;1.15;;
66270;SDS011;53063;39.614;8.814;2022-10-04T01:00:07;12.23;;;2.25;;
66270;SDS011;53063;39.614;8.814;2022-10-04T01:05:12;6.70;;;2.53;;
66270;SDS011;53063;39.614;8.814;2022-10-04T01:07:45;9.07;;;2.65;;
66270;SDS011;53063;39.614;8.814;2022-10-04T01:10:35;8.18;;;2.78;;
66270;SDS011;53063;39.614;8.814;2022-10-04T01:13:12;7.35;;;2.40;;
66270;SDS011;53063;39.614;8.814;2022-10-04T01:16:02;17.77;;;3.85;;
66270;SDS011;53063;39.614;8.814;2022-10-04T01:18:38;11.95;;;1.85;;
66270;SDS011;53063;39.614;8.814;2022-10-04T01:26:40;5.20;;;1.70;;
66270;SDS011;53063;39.614;8.814;2022-10-04T01:29:12;7.47;;;1.83;;
66270;SDS011;53063;39.614;8.814;2022-10-04T01:31:47;11.07;;;2.30;;
66270;SDS011;53063;39.614;8.814;2022-10-04T01:34:21;9.30;;;1.70;;
66270;SDS011;53063;39.614;8.814;2022-10-04T01:36:49;9.57;;;1.67;;
66270;SDS011;53063;39.614;8.814;2022-10-04T01:39:18;6.53;;;2.30;;
66270;SDS011;53063;39.614;8.814;2022-10-04T01:42:04;8.25;;;4.60;;
66270;SDS011;53063;39.614;8.814;2022-10-04T01:47:02;10.00;;;1.45;;
66270;SDS011;53063;39.614;8.814;2022-10-04T01:49:33;5.00;;;1.38;;
66270;SDS011;53063;39.614;8.814;2022-10-04T01:54:31;7.20;;;2.42;;
66270;SDS011;53063;39.614;8.814;2022-10-04T01:57:22;8.73;;;1.40;;
66270;SDS011;53063;39.614;8.814;2022-10-04T02:04:59;9.95;;;1.73;;
66270;SDS011;53063;39.614;8.814;2022-10-04T02:07:30;10.15;;;2.15;;
66270;SDS011;53063;39.614;8.814;2022-10-04T02:09:58;5.03;;;1.50;;
66270;SDS011;53063;39.614;8.814;2022-10-04T02:12:28;8.35;;;1.80;;
66270;SDS011;53063;39.614;8.814;2022-10-04T02:14:59;8.82;;;2.03;;
66270;SDS011;53063;39.614;8.814;2022-10-04T02:17:28;7.18;;;1.60;;
66270;SDS011;53063;39.614;8.814;2022-10-04T02:19:57;12.27;;;1.48;;
66270;SDS011;53063;39.614;8.814;2022-10-04T02:22:25;9.73;;;1.63;;
66270;SDS011;53063;39.614;8.814;2022-10-04T02:24:52;7.75;;;2.45;;
66270;SDS011;53063;39.614;8.814;2022-10-04T02:27:24;7.93;;;1.00;;
66270;SDS011;53063;39.614;8.814;2022-10-04T02:29:59;8.38;;;1.05;;
66270;SDS011;53063;39.614;8.814;2022-10-04T02:32:28;6.72;;;1.48;;
66270;SDS011;53063;39.614;8.814;2022-10-04T02:35:13;8.82;;;1.20;;
66270;SDS011;53063;39.614;8.814;2022-10-04T02:37:40;8.32;;;1.23;;
66270;SDS011;53063;39.614;8.814;2022-10-04T02:40:07;11.65;;;1.63;;
66270;SDS011;53063;39.614;8.814;2022-10-04T02:42:55;9.13;;;1.63;;
66270;SDS011;53063;39.614;8.814;2022-10-04T02:48:36;7.85;;;1.73;;
66270;SDS011;53063;39.614;8.814;2022-10-04T02:56:54;7.50;;;1.63;;
66270;SDS011;53063;39.614;8.814;2022-10-04T02:59:22;4.43;;;1.13;;
66270;SDS011;53063;39.614;8.814;2022-10-04T03:01:49;4.22;;;0.93;;
66270;SDS011;53063;39.614;8.814;2022-10-04T03:04:24;7.40;;;1.25;;
66270;SDS011;53063;39.614;8.814;2022-10-04T03:07:03;5.97;;;1.17;;
66270;SDS011;53063;39.614;8.814;2022-10-04T03:09:31;6.85;;;1.20;;
66270;SDS011;53063;39.614;8.814;2022-10-04T03:11:59;7.75;;;1.33;;
66270;SDS011;53063;39.614;8.814;2022-10-04T03:14:26;12.30;;;1.40;;
66270;SDS011;53063;39.614;8.814;2022-10-04T03:16:54;6.55;;;1.20;;
66270;SDS011;53063;39.614;8.814;2022-10-04T03:19:22;9.00;;;1.52;;
66270;SDS011;53063;39.614;8.814;2022-10-04T03:21:52;7.63;;;1.85;;
66270;SDS011;53063;39.614;8.814;2022-10-04T03:24:24;5.47;;;1.30;;
66270;SDS011;53063;39.614;8.814;2022-10-04T03:26:54;8.57;;;1.42;;
66270;SDS011;53063;39.614;8.814;2022-10-04T03:29:24;3.63;;;1.20;;
66270;SDS011;53063;39.614;8.814;2022-10-04T03:31:53;7.35;;;1.60;;
66270;SDS011;53063;39.614;8.814;2022-10-04T03:36:51;8.95;;;2.00;;
66270;SDS011;53063;39.614;8.814;2022-10-04T03:39:30;10.02;;;1.50;;
66270;SDS011;53063;39.614;8.814;2022-10-04T03:42:06;12.55;;;2.05;;
66270;SDS011;53063;39.614;8.814;2022-10-04T03:44:37;7.68;;;1.58;;
66270;SDS011;53063;39.614;8.814;2022-10-04T03:47:08;5.90;;;1.73;;
66270;SDS011;53063;39.614;8.814;2022-10-04T03:49:36;7.47;;;2.20;;
66270;SDS011;53063;39.614;8.814;2022-10-04T03:52:04;11.57;;;2.30;;
66270;SDS011;53063;39.614;8.814;2022-10-04T03:54:36;8.23;;;2.25;;
66270;SDS011;53063;39.614;8.814;2022-10-04T03:57:02;13.40;;;2.60;;
66270;SDS011;53063;39.614;8.814;2022-10-04T03:59:31;8.25;;;2.40;;
66270;SDS011;53063;39.614;8.814;2022-10-04T04:04:32;9.77;;;2.58;;
66270;SDS011;53063;39.614;8.814;2022-10-04T04:09:51;6.82;;;1.60;;
66270;SDS011;53063;39.614;8.814;2022-10-04T04:12:26;6.38;;;1.63;;
66270;SDS011;53063;39.614;8.814;2022-10-04T04:15:08;7.38;;;1.75;;
66270;SDS011;53063;39.614;8.814;2022-10-04T04:17:37;7.38;;;1.30;;
66270;SDS011;53063;39.614;8.814;2022-10-04T04:20:11;4.95;;;1.40;;
66270;SDS011;53063;39.614;8.814;2022-10-04T04:22:43;11.10;;;1.80;;
66270;SDS011;53063;39.614;8.814;2022-10-04T04:25:21;3.63;;;0.95;;
66270;SDS011;53063;39.614;8.814;2022-10-04T04:27:49;6.57;;;1.50;;
66270;SDS011;53063;39.614;8.814;2022-10-04T04:30:18;7.88;;;1.60;;
66270;SDS011;53063;39.614;8.814;2022-10-04T04:32:49;14.05;;;3.97;;
66270;SDS011;53063;39.614;8.814;2022-10-04T04:35:20;14.52;;;4.93;;
66270;SDS011;53063;39.614;8.814;2022-10-04T04:38:11;24.55;;;5.78;;
66270;SDS011;53063;39.614;8.814;2022-10-04T04:40:41;24.08;;;7.55;;
66270;SDS011;53063;39.614;8.814;2022-10-04T04:43:13;27.58;;;8.70;;
66270;SDS011;53063;39.614;8.814;2022-10-04T04:45:44;26.60;;;8.82;;
66270;SDS011;53063;39.614;8.814;2022-10-04T04:48:13;28.73;;;9.75;;
66270;SDS011;53063;39.614;8.814;2022-10-04T04:50:41;27.25;;;11.45;;
66270;SDS011;53063;39.614;8.814;2022-10-04T04:53:10;27.52;;;10.32;;
66270;SDS011;53063;39.614;8.814;2022-10-04T04:55:43;31.92;;;11.57;;
66270;SDS011;53063;39.614;8.814;2022-10-04T04:58:22;38.20;;;12.35;;
66270;SDS011;53063;39.614;8.814;2022-10-04T05:03:20;38.45;;;14.50;;
66270;SDS011;53063;39.614;8.814;2022-10-04T05:05:46;31.90;;;12.68;;
66270;SDS011;53063;39.614;8.814;2022-10-04T05:13:55;35.25;;;12.73;;
66270;SDS011;53063;39.614;8.814;2022-10-04T05:19:21;28.33;;;10.50;;
66270;SDS011;53063;39.614;8.814;2022-10-04T05:21:50;30.65;;;9.45;;
66270;SDS011;53063;39.614;8.814;2022-10-04T05:24:22;32.90;;;11.93;;
66270;SDS011;53063;39.614;8.814;2022-10-04T05:26:54;28.73;;;11.10;;
66270;SDS011;53063;39.614;8.814;2022-10-04T05:29:24;34.60;;;11.25;;
66270;SDS011;53063;39.614;8.814;2022-10-04T05:32:04;26.38;;;11.60;;
66270;SDS011;53063;39.614;8.814;2022-10-04T05:34:50;28.10;;;11.43;;
66270;SDS011;53063;39.614;8.814;2022-10-04T05:37:24;31.70;;;10.30;;
66270;SDS011;53063;39.614;8.814;2022-10-04T05:42:36;32.33;;;11.95;;
66270;SDS011;53063;39.614;8.814;2022-10-04T05:47:41;25.02;;;10.80;;
66270;SDS011;53063;39.614;8.814;2022-10-04T05:50:13;34.67;;;11.35;;
66270;SDS011;53063;39.614;8.814;2022-10-04T05:52:43;26.80;;;10.13;;
66270;SDS011;53063;39.614;8.814;2022-10-04T06:00:20;21.80;;;8.50;;
66270;SDS011;53063;39.614;8.814;2022-10-04T06:03:16;17.90;;;6.90;;
66270;SDS011;53063;39.614;8.814;2022-10-04T06:05:52;24.45;;;8.02;;
66270;SDS011;53063;39.614;8.814;2022-10-04T06:14:31;15.80;;;6.97;;
66270;SDS011;53063;39.614;8.814;2022-10-04T06:22:47;22.98;;;8.18;;
66270;SDS011;53063;39.614;8.814;2022-10-04T06:25:24;21.65;;;7.75;;
66270;SDS011;53063;39.614;8.814;2022-10-04T06:27:53;20.88;;;7.82;;
66270;SDS011;53063;39.614;8.814;2022-10-04T06:36:56;36.13;;;13.82;;
66270;SDS011;53063;39.614;8.814;2022-10-04T06:39:27;42.00;;;14.38;;
66270;SDS011;53063;39.614;8.814;2022-10-04T06:42:19;30.13;;;12.10;;
66270;SDS011;53063;39.614;8.814;2022-10-04T07:03:58;19.75;;;7.10;;
66270;SDS011;53063;39.614;8.814;2022-10-04T07:06:27;17.90;;;5.43;;
66270;SDS011;53063;39.614;8.814;2022-10-04T07:09:01;11.40;;;4.20;;
66270;SDS011;53063;39.614;8.814;2022-10-04T07:11:40;11.70;;;2.78;;
66270;SDS011;53063;39.614;8.814;2022-10-04T07:19:38;9.98;;;2.75;;
66270;SDS011;53063;39.614;8.814;2022-10-04T07:25:20;9.00;;;2.03;;
66270;SDS011;53063;39.614;8.814;2022-10-04T07:28:11;8.63;;;1.85;;
66270;SDS011;53063;39.614;8.814;2022-10-04T07:31:03;5.50;;;1.40;;
66270;SDS011;53063;39.614;8.814;2022-10-04T07:33:43;5.70;;;1.40;;
66270;SDS011;53063;39.614;8.814;2022-10-04T07:36:16;6.90;;;1.35;;
66270;SDS011;53063;39.614;8.814;2022-10-04T07:39:23;7.95;;;1.88;;
66270;SDS011;53063;39.614;8.814;2022-10-04T07:42:05;6.15;;;1.73;;
66270;SDS011;53063;39.614;8.814;2022-10-04T07:44:44;4.63;;;1.92;;
66270;SDS011;53063;39.614;8.814;2022-10-04T07:47:25;8.85;;;2.47;;
66270;SDS011;53063;39.614;8.814;2022-10-04T07:49:55;4.90;;;1.75;;
66270;SDS011;53063;39.614;8.814;2022-10-04T07:52:42;5.45;;;1.58;;
66270;SDS011;53063;39.614;8.814;2022-10-04T08:03:29;7.43;;;2.15;;
66270;SDS011;53063;39.614;8.814;2022-10-04T08:06:12;5.70;;;1.90;;
66270;SDS011;53063;39.614;8.814;2022-10-04T08:09:17;6.28;;;1.63;;
66270;SDS011;53063;39.614;8.814;2022-10-04T08:31:54;2.00;;;0.93;;
66270;SDS011;53063;39.614;8.814;2022-10-04T08:54:22;3.00;;;0.85;;
66270;SDS011;53063;39.614;8.814;2022-10-04T09:08:02;4.60;;;1.70;;
66270;SDS011;53063;39.614;8.814;2022-10-04T09:36:26;4.57;;;1.02;;
66270;SDS011;53063;39.614;8.814;2022-10-04T09:39:12;2.20;;;0.95;;
66270;SDS011;53063;39.614;8.814;2022-10-04T09:47:43;4.22;;;0.80;;
66270;SDS011;53063;39.614;8.814;2022-10-04T09:53:23;3.17;;;0.90;;
66270;SDS011;53063;39.614;8.814;2022-10-04T10:31:33;3.05;;;0.80;;
66270;SDS011;53063;39.614;8.814;2022-10-04T10:39:40;2.72;;;1.20;;
66270;SDS011;53063;39.614;8.814;2022-10-04T10:45:22;4.13;;;1.30;;
66270;SDS011;53063;39.614;8.814;2022-10-04T10:48:11;3.00;;;1.20;;
66270;SDS011;53063;39.614;8.814;2022-10-04T11:11:08;2.75;;;0.80;;
66270;SDS011;53063;39.614;8.814;2022-10-04T11:16:36;4.20;;;1.58;;
66270;SDS011;53063;39.614;8.814;2022-10-04T11:30:08;3.17;;;1.10;;
66270;SDS011;53063;39.614;8.814;2022-10-04T11:35:37;4.00;;;2.00;;
66270;SDS011;53063;39.614;8.814;2022-10-04T11:44:20;4.28;;;0.90;;
66270;SDS011;53063;39.614;8.814;2022-10-04T11:47:02;2.83;;;1.10;;
66270;SDS011;53063;39.614;8.814;2022-10-04T11:58:16;3.72;;;1.48;;
66270;SDS011;53063;39.614;8.814;2022-10-04T12:10:08;3.63;;;1.20;;
66270;SDS011;53063;39.614;8.814;2022-10-04T12:23:41;5.85;;;1.60;;
66270;SDS011;53063;39.614;8.814;2022-10-04T12:35:01;6.18;;;1.20;;
66270;SDS011;53063;39.614;8.814;2022-10-04T12:51:53;2.85;;;1.27;;
66270;SDS011;53063;39.614;8.814;2022-10-04T12:54:41;5.15;;;1.58;;
66270;SDS011;53063;39.614;8.814;2022-10-04T12:59:54;2.25;;;1.10;;
66270;SDS011;53063;39.614;8.814;2022-10-04T13:02:46;6.60;;;1.65;;
66270;SDS011;53063;39.614;8.814;2022-10-04T13:16:21;2.88;;;1.25;;
66270;SDS011;53063;39.614;8.814;2022-10-04T13:27:30;3.95;;;1.40;;
66270;SDS011;53063;39.614;8.814;2022-10-04T13:30:20;1.77;;;1.02;;
66270;SDS011;53063;39.614;8.814;2022-10-04T13:32:59;3.45;;;0.98;;
66270;SDS011;53063;39.614;8.814;2022-10-04T13:35:29;2.15;;;1.13;;
66270;SDS011;53063;39.614;8.814;2022-10-04T13:41:15;2.92;;;1.20;;
66270;SDS011;53063;39.614;8.814;2022-10-04T13:47:29;4.13;;;1.10;;
66270;SDS011;53063;39.614;8.814;2022-10-04T13:55:31;4.30;;;1.55;;
66270;SDS011;53063;39.614;8.814;2022-10-04T13:58:41;3.03;;;1.25;;
66270;SDS011;53063;39.614;8.814;2022-10-04T14:31:50;4.63;;;1.17;;
66270;SDS011;53063;39.614;8.814;2022-10-04T14:37:48;6.75;;;1.17;;
66270;SDS011;53063;39.614;8.814;2022-10-04T15:10:56;3.75;;;1.40;;
66270;SDS011;53063;39.614;8.814;2022-10-04T15:14:18;7.85;;;1.70;;
66270;SDS011;53063;39.614;8.814;2022-10-04T15:18:55;5.18;;;1.48;;
66270;SDS011;53063;39.614;8.814;2022-10-04T15:24:20;6.35;;;1.92;;
66270;SDS011;53063;39.614;8.814;2022-10-04T15:37:39;2.90;;;1.55;;
66270;SDS011;53063;39.614;8.814;2022-10-04T15:45:55;2.97;;;1.30;;
66270;SDS011;53063;39.614;8.814;2022-10-04T15:48:59;3.08;;;1.17;;
66270;SDS011;53063;39.614;8.814;2022-10-04T16:00:25;5.30;;;2.05;;
66270;SDS011;53063;39.614;8.814;2022-10-04T16:06:08;3.70;;;1.75;;
66270;SDS011;53063;39.614;8.814;2022-10-04T16:11:53;3.88;;;1.40;;
66270;SDS011;53063;39.614;8.814;2022-10-04T16:25:46;5.13;;;0.98;;
66270;SDS011;53063;39.614;8.814;2022-10-04T16:39:52;5.60;;;0.90;;
66270;SDS011;53063;39.614;8.814;2022-10-04T16:47:36;3.70;;;0.90;;
66270;SDS011;53063;39.614;8.814;2022-10-04T16:50:12;5.53;;;1.00;;
66270;SDS011;53063;39.614;8.814;2022-10-04T16:55:54;1.30;;;0.70;;
66270;SDS011;53063;39.614;8.814;2022-10-04T17:06:33;3.60;;;0.90;;
66270;SDS011;53063;39.614;8.814;2022-10-04T17:09:31;3.38;;;0.77;;
66270;SDS011;53063;39.614;8.814;2022-10-04T17:14:53;10.07;;;3.50;;
66270;SDS011;53063;39.614;8.814;2022-10-04T17:17:21;5.00;;;1.27;;
66270;SDS011;53063;39.614;8.814;2022-10-04T17:20:11;2.88;;;1.20;;
66270;SDS011;53063;39.614;8.814;2022-10-04T17:30:59;3.75;;;1.80;;
66270;SDS011;53063;39.614;8.814;2022-10-04T17:36:05;3.67;;;1.73;;
66270;SDS011;53063;39.614;8.814;2022-10-04T17:52:22;3.83;;;1.10;;
66270;SDS011;53063;39.614;8.814;2022-10-04T17:55:20;7.63;;;1.48;;
66270;SDS011;53063;39.614;8.814;2022-10-04T17:58:03;4.63;;;1.40;;
66270;SDS011;53063;39.614;8.814;2022-10-04T18:01:36;3.67;;;1.10;;
66270;SDS011;53063;39.614;8.814;2022-10-04T18:03:35;2.28;;;1.35;;
66270;SDS011;53063;39.614;8.814;2022-10-04T18:08:54;11.70;;;4.30;;
66270;SDS011;53063;39.614;8.814;2022-10-04T18:11:44;32.20;;;11.15;;
66270;SDS011;53063;39.614;8.814;2022-10-04T18:16:55;52.30;;;15.40;;
66270;SDS011;53063;39.614;8.814;2022-10-04T18:19:43;11.15;;;3.30;;
66270;SDS011;53063;39.614;8.814;2022-10-04T18:22:23;4.32;;;1.50;;
66270;SDS011;53063;39.614;8.814;2022-10-04T18:27:51;4.07;;;1.08;;
66270;SDS011;53063;39.614;8.814;2022-10-04T18:30:31;8.25;;;1.73;;
66270;SDS011;53063;39.614;8.814;2022-10-04T18:33:44;3.50;;;1.63;;
66270;SDS011;53063;39.614;8.814;2022-10-04T18:36:17;6.65;;;2.70;;
66270;SDS011;53063;39.614;8.814;2022-10-04T18:38:46;8.70;;;3.65;;
66270;SDS011;53063;39.614;8.814;2022-10-04T18:41:28;4.63;;;1.80;;
66270;SDS011;53063;39.614;8.814;2022-10-04T18:44:14;5.35;;;1.95;;
66270;SDS011;53063;39.614;8.814;2022-10-04T18:46:42;6.68;;;1.90;;
66270;SDS011;53063;39.614;8.814;2022-10-04T18:49:16;8.07;;;2.15;;
66270;SDS011;53063;39.614;8.814;2022-10-04T18:57:21;3.50;;;1.70;;
66270;SDS011;53063;39.614;8.814;2022-10-04T19:00:20;4.07;;;1.77;;
66270;SDS011;53063;39.614;8.814;2022-10-04T19:03:19;4.60;;;2.05;;
66270;SDS011;53063;39.614;8.814;2022-10-04T19:16:51;4.03;;;1.77;;
66270;SDS011;53063;39.614;8.814;2022-10-04T19:22:17;5.80;;;2.00;;
66270;SDS011;53063;39.614;8.814;2022-10-04T19:27:26;6.65;;;1.85;;
66270;SDS011;53063;39.614;8.814;2022-10-04T19:35:02;5.30;;;1.75;;
66270;SDS011;53063;39.614;8.814;2022-10-04T19:38:29;7.25;;;2.00;;
66270;SDS011;53063;39.614;8.814;2022-10-04T19:48:56;7.38;;;2.72;;
66270;SDS011;53063;39.614;8.814;2022-10-04T19:51:32;8.25;;;2.35;;
66270;SDS011;53063;39.614;8.814;2022-10-04T19:54:10;5.72;;;2.00;;
66270;SDS011;53063;39.614;8.814;2022-10-04T19:56:42;5.60;;;2.10;;
66270;SDS011;53063;39.614;8.814;2022-10-04T19:59:14;8.48;;;2.92;;
66270;SDS011;53063;39.614;8.814;2022-10-04T20:02:06;9.93;;;2.40;;
66270;SDS011;53063;39.614;8.814;2022-10-04T20:04:33;5.43;;;2.00;;
66270;SDS011;53063;39.614;8.814;2022-10-04T20:07:00;8.80;;;2.15;;
66270;SDS011;53063;39.614;8.814;2022-10-04T20:09:29;7.47;;;2.22;;
66270;SDS011;53063;39.614;8.814;2022-10-04T20:12:02;4.78;;;1.73;;
66270;SDS011;53063;39.614;8.814;2022-10-04T20:21:54;4.13;;;1.33;;
66270;SDS011;53063;39.614;8.814;2022-10-04T20:27:01;7.65;;;1.70;;
66270;SDS011;53063;39.614;8.814;2022-10-04T20:34:55;7.30;;;2.38;;
66270;SDS011;53063;39.614;8.814;2022-10-04T20:45:45;4.47;;;1.80;;
66270;SDS011;53063;39.614;8.814;2022-10-04T20:48:22;7.88;;;2.00;;
66270;SDS011;53063;39.614;8.814;2022-10-04T20:50:50;8.05;;;2.42;;
66270;SDS011;53063;39.614;8.814;2022-10-04T20:53:19;5.03;;;1.40;;
66270;SDS011;53063;39.614;8.814;2022-10-04T20:56:08;5.93;;;1.55;;
66270;SDS011;53063;39.614;8.814;2022-10-04T20:59:12;4.20;;;1.55;;
66270;SDS011;53063;39.614;8.814;2022-10-04T21:01:39;6.32;;;1.70;;
66270;SDS011;53063;39.614;8.814;2022-10-04T21:04:20;5.15;;;1.90;;
66270;SDS011;53063;39.614;8.814;2022-10-04T21:07:11;5.18;;;1.77;;
66270;SDS011;53063;39.614;8.814;2022-10-04T21:09:42;4.60;;;1.95;;
66270;SDS011;53063;39.614;8.814;2022-10-04T21:12:28;7.63;;;2.10;;
66270;SDS011;53063;39.614;8.814;2022-10-04T21:17:42;7.78;;;2.05;;
66270;SDS011;53063;39.614;8.814;2022-10-04T21:28:56;5.00;;;1.60;;
66270;SDS011;53063;39.614;8.814;2022-10-04T21:31:23;2.28;;;1.45;;
66270;SDS011;53063;39.614;8.814;2022-10-04T21:33:49;5.35;;;1.60;;
66270;SDS011;53063;39.614;8.814;2022-10-04T21:36:15;4.70;;;1.52;;
66270;SDS011;53063;39.614;8.814;2022-10-04T21:38:41;3.42;;;1.38;;
66270;SDS011;53063;39.614;8.814;2022-10-04T21:41:07;5.63;;;1.48;;
66270;SDS011;53063;39.614;8.814;2022-10-04T21:43:33;6.05;;;1.52;;
66270;SDS011;53063;39.614;8.814;2022-10-04T21:45:59;3.92;;;1.50;;
66270;SDS011;53063;39.614;8.814;2022-10-04T21:48:25;9.50;;;2.45;;
66270;SDS011;53063;39.614;8.814;2022-10-04T21:50:52;2.75;;;1.33;;
66270;SDS011;53063;39.614;8.814;2022-10-04T21:53:18;3.50;;;1.60;;
66270;SDS011;53063;39.614;8.814;2022-10-04T21:55:44;5.40;;;1.40;;
66270;SDS011;53063;39.614;8.814;2022-10-04T21:58:11;4.00;;;1.58;;
66270;SDS011;53063;39.614;8.814;2022-10-04T22:00:37;4.55;;;1.65;;
66270;SDS011;53063;39.614;8.814;2022-10-04T22:03:03;3.47;;;1.60;;
66270;SDS011;53063;39.614;8.814;2022-10-04T22:05:29;6.38;;;2.17;;
66270;SDS011;53063;39.614;8.814;2022-10-04T22:07:55;9.18;;;1.90;;
66270;SDS011;53063;39.614;8.814;2022-10-04T22:10:22;5.82;;;1.90;;
66270;SDS011;53063;39.614;8.814;2022-10-04T22:12:48;7.13;;;2.72;;
66270;SDS011;53063;39.614;8.814;2022-10-04T22:15:15;8.45;;;2.38;;
66270;SDS011;53063;39.614;8.814;2022-10-04T22:17:41;9.90;;;2.60;;
66270;SDS011;53063;39.614;8.814;2022-10-04T22:20:07;5.93;;;2.17;;
66270;SDS011;53063;39.614;8.814;2022-10-04T22:22:33;4.65;;;2.17;;
66270;SDS011;53063;39.614;8.814;2022-10-04T22:24:59;22.50;;;5.28;;
66270;SDS011;53063;39.614;8.814;2022-10-04T22:27:25;9.00;;;2.50;;
66270;SDS011;53063;39.614;8.814;2022-10-04T22:29:54;5.18;;;2.13;;
66270;SDS011;53063;39.614;8.814;2022-10-04T22:32:22;7.72;;;2.50;;
66270;SDS011;53063;39.614;8.814;2022-10-04T22:34:51;8.90;;;2.63;;
66270;SDS011;53063;39.614;8.814;2022-10-04T22:37:25;6.75;;;2.53;;
66270;SDS011;53063;39.614;8.814;2022-10-04T22:39:52;5.78;;;2.60;;
66270;SDS011;53063;39.614;8.814;2022-10-04T22:42:19;7.30;;;2.65;;
66270;SDS011;53063;39.614;8.814;2022-10-04T22:44:51;6.32;;;2.10;;
66270;SDS011;53063;39.614;8.814;2022-10-04T22:47:17;6.80;;;2.30;;
66270;SDS011;53063;39.614;8.814;2022-10-04T22:49:44;11.73;;;2.72;;
66270;SDS011;53063;39.614;8.814;2022-10-04T22:52:18;8.68;;;3.72;;
66270;SDS011;53063;39.614;8.814;2022-10-04T22:54:47;5.70;;;2.13;;
66270;SDS011;53063;39.614;8.814;2022-10-04T22:57:14;10.27;;;2.00;;
66270;SDS011;53063;39.614;8.814;2022-10-04T22:59:43;12.10;;;3.65;;
66270;SDS011;53063;39.614;8.814;2022-10-04T23:02:12;7.75;;;2.45;;
66270;SDS011;53063;39.614;8.814;2022-10-04T23:05:00;7.55;;;2.85;;
66270;SDS011;53063;39.614;8.814;2022-10-04T23:07:36;6.53;;;2.65;;
66270;SDS011;53063;39.614;8.814;2022-10-04T23:10:02;6.07;;;2.70;;
66270;SDS011;53063;39.614;8.814;2022-10-04T23:12:28;9.02;;;2.47;;
66270;SDS011;53063;39.614;8.814;2022-10-04T23:14:54;8.13;;;2.10;;
66270;SDS011;53063;39.614;8.814;2022-10-04T23:17:24;5.30;;;2.30;;
66270;SDS011;53063;39.614;8.814;2022-10-04T23:19:57;6.47;;;2.33;;
66270;SDS011;53063;39.614;8.814;2022-10-04T23:22:44;9.13;;;2.83;;
66270;SDS011;53063;39.614;8.814;2022-10-04T23:25:13;10.60;;;5.13;;
66270;SDS011;53063;39.614;8.814;2022-10-04T23:27:40;7.03;;;3.60;;
66270;SDS011;53063;39.614;8.814;2022-10-04T23:30:24;14.98;;;5.68;;
66270;SDS011;53063;39.614;8.814;2022-10-04T23:32:52;15.55;;;4.10;;
66270;SDS011;53063;39.614;8.814;2022-10-04T23:35:23;18.70;;;5.28;;
66270;SDS011;53063;39.614;8.814;2022-10-04T23:37:50;11.45;;;4.85;;
66270;SDS011;53063;39.614;8.814;2022-10-04T23:40:18;12.30;;;2.97;;
66270;SDS011;53063;39.614;8.814;2022-10-04T23:42:47;9.82;;;3.03;;
66270;SDS011;53063;39.614;8.814;2022-10-04T23:45:18;6.40;;;2.40;;
66270;SDS011;53063;39.614;8.814;2022-10-04T23:47:50;5.20;;;2.40;;
66270;SDS011;53063;39.614;8.814;2022-10-04T23:50:33;5.35;;;2.20;;
66270;SDS011;53063;39.614;8.814;2022-10-04T23:53:03;10.10;;;2.60;;
66270;SDS011;53063;39.614;8.814;2022-10-04T23:55:37;4.72;;;2.60;;
66270;SDS011;53063;39.614;8.814;2022-10-04T23:58:19;11.55;;;2.67;;
